createdAt,value
2019-03-12T00:00:09.405Z,2.27
2019-03-12T00:03:16.167Z,2.53
2019-03-12T00:06:21.255Z,2.90
2019-03-12T00:09:26.450Z,2.80
2019-03-12T00:12:31.630Z,3.17
2019-03-12T00:15:36.848Z,2.53
2019-03-12T00:18:42.037Z,3.17
2019-03-12T00:21:47.191Z,2.60
2019-03-12T00:24:52.562Z,2.53
2019-03-12T00:27:57.742Z,3.17
2019-03-12T00:31:02.880Z,2.50
2019-03-12T00:34:08.009Z,3.23
2019-03-12T00:37:13.196Z,2.90
2019-03-12T00:40:18.356Z,2.90
2019-03-12T00:43:23.539Z,3.10
2019-03-12T00:46:28.643Z,2.80
2019-03-12T00:49:33.756Z,2.50
2019-03-12T00:52:38.875Z,2.70
2019-03-12T00:55:44.046Z,3.20
2019-03-12T00:58:49.216Z,2.50
2019-03-12T01:01:54.305Z,3.63
2019-03-12T01:04:59.408Z,2.90
2019-03-12T01:08:04.563Z,2.60
2019-03-12T01:11:09.703Z,2.63
2019-03-12T01:14:14.852Z,2.73
2019-03-12T01:17:20.074Z,2.37
2019-03-12T01:20:25.214Z,2.40
2019-03-12T01:23:30.358Z,2.30
2019-03-12T01:26:35.443Z,2.70
2019-03-12T01:29:40.634Z,2.17
2019-03-12T01:32:45.844Z,2.07
2019-03-12T01:35:52.020Z,2.23
2019-03-12T01:38:57.127Z,2.07
2019-03-12T01:42:02.236Z,2.30
2019-03-12T01:45:09.005Z,2.17
2019-03-12T01:48:14.144Z,1.80
2019-03-12T01:51:19.281Z,2.10
2019-03-12T01:54:24.401Z,2.00
2019-03-12T01:57:29.527Z,1.83
2019-03-12T02:00:34.715Z,1.80
2019-03-12T02:03:39.775Z,1.80
2019-03-12T02:06:44.928Z,2.10
2019-03-12T02:09:50.011Z,2.00
2019-03-12T02:12:55.110Z,2.20
2019-03-12T02:16:00.335Z,1.90
2019-03-12T02:19:05.496Z,1.63
2019-03-12T02:22:10.600Z,1.63
2019-03-12T02:25:16.905Z,1.80
2019-03-12T02:28:21.989Z,2.10
2019-03-12T02:31:27.187Z,2.27
2019-03-12T02:34:33.314Z,1.90
2019-03-12T02:37:38.485Z,1.80
2019-03-12T02:40:43.618Z,2.10
2019-03-12T02:43:48.821Z,1.90
2019-03-12T02:46:53.981Z,2.10
2019-03-12T02:49:59.147Z,1.93
2019-03-12T02:53:04.279Z,2.47
2019-03-12T02:56:09.418Z,2.40
2019-03-12T02:59:14.618Z,2.30
2019-03-12T03:02:19.755Z,1.60
2019-03-12T03:05:24.977Z,1.87
2019-03-12T03:08:32.389Z,1.90
2019-03-12T03:11:37.513Z,2.77
2019-03-12T03:14:42.678Z,1.73
2019-03-12T03:17:47.785Z,2.00
2019-03-12T03:20:52.925Z,1.77
2019-03-12T03:23:58.122Z,2.00
2019-03-12T03:27:03.313Z,1.90
2019-03-12T03:30:12.239Z,1.90
2019-03-12T03:33:17.378Z,1.90
2019-03-12T03:36:22.593Z,2.03
2019-03-12T03:39:27.801Z,1.80
2019-03-12T03:42:32.984Z,2.27
2019-03-12T03:45:38.129Z,2.47
2019-03-12T03:48:43.287Z,2.00
2019-03-12T03:51:48.449Z,2.20
2019-03-12T03:54:53.610Z,2.23
2019-03-12T03:57:58.755Z,2.17
2019-03-12T04:01:04.443Z,1.90
2019-03-12T04:04:09.582Z,2.17
2019-03-12T04:07:14.747Z,2.37
2019-03-12T04:10:19.888Z,1.97
2019-03-12T04:13:25.023Z,2.07
2019-03-12T04:16:30.133Z,2.90
2019-03-12T04:19:35.261Z,2.23
2019-03-12T04:22:40.381Z,2.40
2019-03-12T04:25:45.491Z,2.53
2019-03-12T04:28:50.612Z,2.33
2019-03-12T04:31:55.753Z,2.40
2019-03-12T04:35:00.952Z,2.57
2019-03-12T04:38:07.401Z,2.57
2019-03-12T04:41:12.582Z,3.50
2019-03-12T04:44:17.711Z,2.20
2019-03-12T04:47:22.796Z,3.53
2019-03-12T04:50:27.979Z,2.63
2019-03-12T04:53:33.073Z,2.70
2019-03-12T04:56:38.163Z,4.97
2019-03-12T04:59:43.361Z,4.00
2019-03-12T05:02:48.680Z,3.07
2019-03-12T05:05:53.802Z,2.90
2019-03-12T05:08:58.922Z,2.73
2019-03-12T05:12:04.094Z,2.80
2019-03-12T05:15:11.242Z,3.03
2019-03-12T05:18:16.552Z,2.67
2019-03-12T05:21:21.642Z,2.53
2019-03-12T05:24:26.762Z,3.00
2019-03-12T05:27:31.978Z,3.33
2019-03-12T05:30:37.084Z,3.13
2019-03-12T05:33:42.254Z,3.27
2019-03-12T05:36:47.389Z,2.87
2019-03-12T05:39:52.481Z,3.40
2019-03-12T05:42:57.667Z,3.73
2019-03-12T05:46:02.904Z,3.13
2019-03-12T05:49:08.012Z,3.27
2019-03-12T05:52:13.133Z,3.83
2019-03-12T05:55:18.286Z,4.00
2019-03-12T05:58:23.389Z,4.10
2019-03-12T06:01:28.670Z,5.03
2019-03-12T06:04:33.789Z,4.70
2019-03-12T06:07:38.948Z,4.53
2019-03-12T06:10:45.218Z,6.80
2019-03-12T06:13:50.338Z,6.83
2019-03-12T06:16:55.437Z,5.70
2019-03-12T06:20:00.661Z,6.07
2019-03-12T06:23:06.123Z,5.77
2019-03-12T06:26:11.260Z,5.37
2019-03-12T06:29:16.554Z,4.67
2019-03-12T06:32:29.165Z,5.13
2019-03-12T06:35:50.803Z,3.27
2019-03-12T06:39:12.774Z,3.97
2019-03-12T06:42:32.348Z,3.63
2019-03-12T06:45:56.469Z,3.00
2019-03-12T06:49:12.289Z,2.77
2019-03-12T06:52:40.545Z,3.03
2019-03-12T06:56:08.492Z,3.63
2019-03-12T06:59:35.588Z,3.10
2019-03-12T07:02:48.335Z,3.33
2019-03-12T07:06:27.582Z,4.73
2019-03-12T07:09:44.978Z,3.00
2019-03-12T07:13:16.375Z,2.93
2019-03-12T07:16:39.117Z,2.77
2019-03-12T07:20:01.823Z,2.77
2019-03-12T07:23:22.513Z,2.83
2019-03-12T07:26:45.637Z,3.27
2019-03-12T07:30:16.685Z,2.80
2019-03-12T07:33:40.745Z,2.80
2019-03-12T07:36:54.793Z,2.73
2019-03-12T07:40:28.062Z,3.20
2019-03-12T07:43:43.675Z,2.70
2019-03-12T07:47:16.903Z,3.00
2019-03-12T07:50:28.941Z,3.30
2019-03-12T07:54:05.182Z,2.90
2019-03-12T07:57:23.071Z,3.00
2019-03-12T08:00:38.061Z,2.27
2019-03-12T08:04:02.949Z,2.50
2019-03-12T08:07:20.656Z,2.07
2019-03-12T08:10:43.697Z,2.70
2019-03-12T08:14:06.498Z,3.20
2019-03-12T08:17:30.625Z,2.53
2019-03-12T08:20:47.662Z,2.23
2019-03-12T08:24:01.662Z,3.03
2019-03-12T08:27:26.046Z,2.80
2019-03-12T08:30:48.998Z,2.50
2019-03-12T08:34:19.193Z,2.77
2019-03-12T08:37:43.477Z,2.60
2019-03-12T08:41:16.458Z,2.10
2019-03-12T08:44:43.733Z,2.00
2019-03-12T08:48:04.380Z,2.43
2019-03-12T08:51:26.562Z,2.57
2019-03-12T08:54:53.767Z,2.40
2019-03-12T08:58:13.951Z,2.40
2019-03-12T09:01:36.085Z,1.80
2019-03-12T09:05:05.948Z,2.40
2019-03-12T09:08:19.362Z,2.47
2019-03-12T09:11:55.645Z,2.70
2019-03-12T09:15:36.767Z,3.10
2019-03-12T09:19:04.254Z,2.30
2019-03-12T09:22:28.356Z,2.13
2019-03-12T09:25:45.724Z,2.23
2019-03-12T09:29:05.966Z,2.37
2019-03-12T09:32:40.249Z,2.13
2019-03-12T09:36:13.506Z,2.53
2019-03-12T09:39:24.921Z,2.63
2019-03-12T09:42:48.991Z,2.03
2019-03-12T09:46:22.122Z,2.10
2019-03-12T09:49:45.134Z,1.97
2019-03-12T09:52:59.908Z,1.93
2019-03-12T09:56:14.233Z,1.20
2019-03-12T09:59:41.811Z,1.60
2019-03-12T10:03:05.914Z,1.70
2019-03-12T10:06:22.405Z,1.87
2019-03-12T10:09:45.242Z,1.80
2019-03-12T10:13:01.207Z,1.60
2019-03-12T10:16:31.327Z,1.93
2019-03-12T10:19:50.350Z,1.80
2019-03-12T10:23:27.460Z,1.80
2019-03-12T10:26:46.805Z,1.67
2019-03-12T10:30:20.120Z,2.47
2019-03-12T10:33:36.207Z,1.80
2019-03-12T10:37:11.205Z,2.70
2019-03-12T10:40:27.586Z,1.90
2019-03-12T10:43:44.701Z,2.00
2019-03-12T10:46:56.865Z,1.57
2019-03-12T10:50:02.119Z,1.87
2019-03-12T10:53:07.611Z,1.73
2019-03-12T10:56:12.786Z,2.33
2019-03-12T10:59:17.992Z,1.80
2019-03-12T11:02:23.175Z,2.13
2019-03-12T11:05:28.350Z,1.33
2019-03-12T11:08:33.464Z,2.00
2019-03-12T11:11:38.663Z,1.90
2019-03-12T11:14:44.864Z,1.70
2019-03-12T11:17:50.509Z,1.57
2019-03-12T11:20:58.566Z,1.90
2019-03-12T11:24:02.743Z,1.83
2019-03-12T11:27:07.884Z,1.87
2019-03-12T11:30:15.172Z,1.70
2019-03-12T11:33:20.498Z,1.70
2019-03-12T11:36:25.639Z,1.30
2019-03-12T11:39:30.828Z,1.80
2019-03-12T11:42:36.000Z,1.83
2019-03-12T11:45:41.320Z,2.43
2019-03-12T11:48:46.506Z,2.20
2019-03-12T11:51:51.620Z,1.90
2019-03-12T11:54:56.724Z,1.90
2019-03-12T11:58:02.001Z,2.00
2019-03-12T12:01:08.262Z,1.70
2019-03-12T12:04:13.517Z,1.77
2019-03-12T12:07:18.596Z,2.00
2019-03-12T12:10:24.143Z,1.73
2019-03-12T12:13:29.228Z,1.83
2019-03-12T12:16:34.339Z,1.40
2019-03-12T12:19:39.584Z,1.97
2019-03-12T12:22:44.737Z,1.70
2019-03-12T12:25:49.872Z,1.70
2019-03-12T12:28:55.042Z,1.90
2019-03-12T12:32:00.264Z,1.70
2019-03-12T12:35:06.227Z,1.70
2019-03-12T12:38:12.413Z,1.70
2019-03-12T12:41:17.503Z,1.90
2019-03-12T12:44:22.772Z,1.57
2019-03-12T12:47:27.891Z,1.67
2019-03-12T12:50:33.072Z,2.17
2019-03-12T12:53:38.336Z,1.90
2019-03-12T12:56:43.494Z,1.67
2019-03-12T12:59:48.643Z,1.83
2019-03-12T13:02:53.844Z,1.70
2019-03-12T13:05:59.080Z,1.70
2019-03-12T13:09:05.650Z,1.70
2019-03-12T13:12:12.374Z,2.17
2019-03-12T13:15:17.504Z,1.77
2019-03-12T13:18:22.625Z,2.00
2019-03-12T13:21:27.879Z,2.47
2019-03-12T13:24:33.145Z,1.70
2019-03-12T13:27:42.579Z,2.10
2019-03-12T13:30:45.091Z,2.37
2019-03-12T13:33:50.478Z,2.07
2019-03-12T13:36:55.562Z,1.93
2019-03-12T13:40:01.325Z,1.97
2019-03-12T13:43:07.209Z,2.10
2019-03-12T13:46:12.425Z,1.97
2019-03-12T13:49:17.641Z,1.87
2019-03-12T13:52:22.832Z,1.73
2019-03-12T13:55:27.946Z,1.70
2019-03-12T13:58:33.117Z,1.70
2019-03-12T14:01:38.251Z,1.93
2019-03-12T14:04:44.634Z,1.97
2019-03-12T14:07:49.760Z,1.87
2019-03-12T14:10:54.989Z,1.60
2019-03-12T14:14:00.158Z,2.20
2019-03-12T14:17:08.283Z,2.20
2019-03-12T14:20:44.190Z,1.97
2019-03-12T14:23:58.710Z,2.03
2019-03-12T14:27:03.946Z,1.83
2019-03-12T14:30:09.271Z,1.87
2019-03-12T14:33:14.514Z,1.90
2019-03-12T14:36:19.677Z,2.00
2019-03-12T14:39:24.821Z,2.57
2019-03-12T14:42:30.016Z,1.83
2019-03-12T14:45:38.052Z,1.60
2019-03-12T14:48:47.670Z,1.67
2019-03-12T14:52:29.545Z,1.37
2019-03-12T14:55:34.695Z,1.87
2019-03-12T14:58:39.865Z,2.00
2019-03-12T15:01:44.926Z,1.57
2019-03-12T15:04:50.157Z,1.83
2019-03-12T15:07:55.400Z,1.67
2019-03-12T15:11:00.522Z,1.70
2019-03-12T15:14:05.631Z,1.33
2019-03-12T15:17:10.831Z,1.80
2019-03-12T15:20:16.031Z,1.80
2019-03-12T15:23:21.219Z,2.10
2019-03-12T15:26:26.317Z,1.67
2019-03-12T15:29:31.437Z,1.53
2019-03-12T15:32:36.688Z,1.50
2019-03-12T15:35:41.852Z,1.77
2019-03-12T15:38:47.894Z,1.60
2019-03-12T15:41:53.060Z,2.70
2019-03-12T15:44:58.315Z,1.70
2019-03-12T15:48:03.479Z,1.57
2019-03-12T15:51:08.688Z,1.63
2019-03-12T15:54:13.964Z,2.70
2019-03-12T15:57:19.079Z,2.23
2019-03-12T16:00:24.172Z,1.43
2019-03-12T16:03:29.355Z,2.17
2019-03-12T16:06:34.574Z,1.67
2019-03-12T16:09:39.719Z,2.10
2019-03-12T16:12:46.500Z,2.53
2019-03-12T16:15:51.673Z,1.70
2019-03-12T16:18:56.808Z,1.87
2019-03-12T16:22:02.013Z,1.60
2019-03-12T16:25:07.898Z,1.37
2019-03-12T16:28:13.057Z,1.83
2019-03-12T16:31:18.228Z,1.70
2019-03-12T16:34:23.464Z,1.50
2019-03-12T16:37:29.095Z,0.93
2019-03-12T16:40:34.220Z,1.50
2019-03-12T16:43:39.382Z,1.60
2019-03-12T16:46:44.550Z,2.07
2019-03-12T16:49:49.659Z,2.07
2019-03-12T16:52:54.903Z,2.00
2019-03-12T16:56:00.075Z,1.73
2019-03-12T16:59:08.287Z,2.33
2019-03-12T17:02:11.966Z,2.30
2019-03-12T17:05:17.125Z,1.87
2019-03-12T17:08:22.305Z,1.83
2019-03-12T17:11:27.457Z,1.40
2019-03-12T17:14:38.805Z,1.50
2019-03-12T17:17:39.524Z,2.80
2019-03-12T17:20:44.724Z,4.63
2019-03-12T17:23:49.975Z,3.57
2019-03-12T17:26:55.060Z,4.83
2019-03-12T17:30:00.440Z,3.10
2019-03-12T17:33:06.863Z,2.93
2019-03-12T17:36:12.190Z,3.50
2019-03-12T17:39:17.305Z,3.67
2019-03-12T17:42:22.725Z,4.63
2019-03-12T17:45:27.880Z,3.60
2019-03-12T17:48:33.051Z,3.60
2019-03-12T17:51:38.135Z,4.13
2019-03-12T17:54:43.283Z,4.47
2019-03-12T17:57:50.738Z,4.30
2019-03-12T18:00:55.222Z,4.17
2019-03-12T18:04:00.357Z,4.30
2019-03-12T18:07:05.646Z,3.33
2019-03-12T18:10:11.823Z,5.63
2019-03-12T18:13:16.999Z,4.97
2019-03-12T18:16:22.111Z,3.30
2019-03-12T18:19:27.337Z,2.63
2019-03-12T18:22:32.541Z,4.80
2019-03-12T18:25:37.921Z,4.07
2019-03-12T18:28:44.461Z,3.30
2019-03-12T18:31:49.689Z,2.07
2019-03-12T18:34:54.972Z,2.20
2019-03-12T18:38:00.278Z,1.93
2019-03-12T18:41:05.763Z,3.77
2019-03-12T18:44:10.888Z,1.60
2019-03-12T18:47:19.046Z,2.00
2019-03-12T18:50:23.301Z,2.33
2019-03-12T18:53:28.540Z,3.30
2019-03-12T18:56:33.807Z,4.07
2019-03-12T18:59:38.883Z,2.80
2019-03-12T19:02:44.024Z,3.03
2019-03-12T19:05:49.246Z,2.73
2019-03-12T19:08:54.411Z,2.77
2019-03-12T19:11:59.502Z,2.60
2019-03-12T19:15:05.402Z,2.67
2019-03-12T19:18:10.677Z,2.67
2019-03-12T19:21:15.783Z,2.23
2019-03-12T19:24:20.956Z,2.77
2019-03-12T19:27:27.152Z,2.20
2019-03-12T19:30:32.556Z,2.83
2019-03-12T19:33:42.520Z,2.17
2019-03-12T19:36:47.661Z,2.77
2019-03-12T19:39:53.011Z,1.97
2019-03-12T19:42:58.133Z,2.27
2019-03-12T19:46:03.293Z,2.90
2019-03-12T19:49:08.497Z,3.17
2019-03-12T19:52:13.689Z,3.47
2019-03-12T19:55:22.285Z,2.60
2019-03-12T19:58:28.647Z,2.70
2019-03-12T20:01:34.551Z,3.53
2019-03-12T20:04:47.320Z,3.90
2019-03-12T20:07:46.562Z,4.27
2019-03-12T20:11:40.784Z,2.20
2019-03-12T20:15:17.377Z,2.60
2019-03-12T20:19:05.408Z,10.67
2019-03-12T20:22:59.433Z,4.50
2019-03-12T20:27:13.221Z,3.20
2019-03-12T20:30:55.400Z,2.53
2019-03-12T20:34:49.014Z,2.77
2019-03-12T20:38:30.906Z,2.20
2019-03-12T20:42:12.036Z,1.60
2019-03-12T20:46:09.154Z,1.80
2019-03-12T20:49:50.475Z,1.77
2019-03-12T20:53:41.626Z,3.60
2019-03-12T20:57:29.581Z,2.73
2019-03-12T21:01:27.861Z,3.50
2019-03-12T21:05:09.195Z,11.03
2019-03-12T21:09:10.648Z,9.73
2019-03-12T21:13:21.568Z,4.63
2019-03-12T21:17:09.764Z,3.47
2019-03-12T21:21:20.228Z,3.33
2019-03-12T21:25:00.440Z,2.80
2019-03-12T21:28:30.618Z,2.27
2019-03-12T21:31:35.751Z,2.33
2019-03-12T21:34:41.206Z,2.10
2019-03-12T21:37:46.379Z,2.67
2019-03-12T21:40:51.618Z,3.40
2019-03-12T21:43:57.842Z,3.40
2019-03-12T21:47:03.052Z,3.40
2019-03-12T21:50:08.412Z,2.93
2019-03-12T21:53:13.683Z,3.03
2019-03-12T21:56:18.897Z,3.37
2019-03-12T21:59:24.346Z,3.17
2019-03-12T22:02:29.456Z,3.07
2019-03-12T22:05:34.539Z,2.93
2019-03-12T22:08:39.700Z,2.57
2019-03-12T22:11:44.976Z,2.43
2019-03-12T22:14:50.206Z,2.57
2019-03-12T22:17:55.324Z,2.30
2019-03-12T22:21:00.462Z,2.40
2019-03-12T22:24:07.629Z,2.80
2019-03-12T22:27:12.863Z,2.40
2019-03-12T22:30:21.070Z,2.00
2019-03-12T22:33:26.334Z,1.30
2019-03-12T22:36:31.482Z,1.73
2019-03-12T22:39:36.638Z,1.50
2019-03-12T22:42:41.904Z,1.50
2019-03-12T22:45:47.042Z,1.37
2019-03-12T22:48:52.250Z,1.10
2019-03-12T22:51:57.342Z,1.43
2019-03-12T22:55:04.106Z,1.30
2019-03-12T22:58:09.490Z,1.30
2019-03-12T23:01:32.444Z,1.30
2019-03-12T23:04:55.504Z,1.10
2019-03-12T23:08:18.393Z,1.50
2019-03-12T23:11:25.195Z,1.50
2019-03-12T23:14:31.962Z,1.53
2019-03-12T23:17:37.274Z,1.30
2019-03-12T23:20:42.530Z,1.67
2019-03-12T23:23:47.658Z,1.80
2019-03-12T23:26:52.846Z,1.43
2019-03-12T23:29:58.046Z,1.40
2019-03-12T23:33:04.381Z,1.30
2019-03-12T23:36:09.647Z,1.30
2019-03-12T23:39:14.957Z,1.60
2019-03-12T23:42:22.501Z,1.13
2019-03-12T23:45:27.719Z,1.07
2019-03-12T23:48:32.856Z,1.60
2019-03-12T23:51:39.094Z,1.50
2019-03-12T23:54:44.388Z,1.17
2019-03-12T23:57:49.531Z,1.80
